createdAt,value
2023-11-15T00:01:48.421Z,11.29
2023-11-15T00:04:15.539Z,11.29
2023-11-15T00:06:42.931Z,11.32
2023-11-15T00:09:10.786Z,11.31
2023-11-15T00:11:40.275Z,11.31
2023-11-15T00:14:09.972Z,11.28
2023-11-15T00:16:37.276Z,11.23
2023-11-15T00:19:04.944Z,11.23
2023-11-15T00:21:32.231Z,11.22
2023-11-15T00:24:02.144Z,11.23
2023-11-15T00:26:30.712Z,11.23
2023-11-15T00:28:58.675Z,11.21
2023-11-15T00:31:26.152Z,11.21
2023-11-15T00:33:53.352Z,11.22
2023-11-15T00:36:21.334Z,11.21
2023-11-15T00:38:48.733Z,11.19
2023-11-15T00:41:16.154Z,11.17
2023-11-15T00:43:44.278Z,11.14
2023-11-15T00:46:14.542Z,11.12
2023-11-15T00:48:43.479Z,11.14
2023-11-15T00:51:10.556Z,11.17
2023-11-15T00:53:37.899Z,11.16
2023-11-15T00:56:05.562Z,11.16
2023-11-15T00:58:40.489Z,11.13
2023-11-15T01:01:12.436Z,11.11
2023-11-15T01:03:57.741Z,11.11
2023-11-15T01:06:26.565Z,11.10
2023-11-15T01:08:56.180Z,11.09
2023-11-15T01:11:24.865Z,11.11
2023-11-15T01:13:52.037Z,11.14
2023-11-15T01:16:19.485Z,11.14
2023-11-15T01:18:46.783Z,11.10
2023-11-15T01:21:14.132Z,11.02
2023-11-15T01:23:41.721Z,10.95
2023-11-15T01:26:10.741Z,10.86
2023-11-15T01:28:38.373Z,10.79
2023-11-15T01:31:05.899Z,10.81
2023-11-15T01:33:33.206Z,10.79
2023-11-15T01:36:00.351Z,10.77
2023-11-15T01:38:27.705Z,10.76
2023-11-15T01:40:55.207Z,10.78
2023-11-15T01:43:22.966Z,10.79
2023-11-15T01:45:52.494Z,10.84
2023-11-15T01:48:20.042Z,10.85
2023-11-15T01:50:48.275Z,10.87
2023-11-15T01:53:15.927Z,10.89
2023-11-15T01:55:45.216Z,10.90
2023-11-15T01:58:16.502Z,10.93
2023-11-15T02:00:44.292Z,10.96
2023-11-15T02:03:12.880Z,10.99
2023-11-15T02:05:40.135Z,11.00
2023-11-15T02:08:08.353Z,11.00
2023-11-15T02:10:36.069Z,11.00
2023-11-15T02:13:03.535Z,11.02
2023-11-15T02:15:31.146Z,11.01
2023-11-15T02:18:03.910Z,11.02
2023-11-15T02:20:31.665Z,11.05
2023-11-15T02:23:00.723Z,11.06
2023-11-15T02:25:27.866Z,11.05
2023-11-15T02:27:54.984Z,11.03
2023-11-15T02:30:24.848Z,11.00
2023-11-15T02:32:52.013Z,10.99
2023-11-15T02:35:19.081Z,10.99
2023-11-15T02:37:46.466Z,11.00
2023-11-15T02:40:13.567Z,11.01
2023-11-15T02:42:40.886Z,11.02
2023-11-15T02:45:09.407Z,11.02
2023-11-15T02:47:39.142Z,11.03
2023-11-15T02:50:06.826Z,11.01
2023-11-15T02:52:37.154Z,10.99
2023-11-15T02:55:05.344Z,11.00
2023-11-15T02:57:32.532Z,10.98
2023-11-15T02:59:59.909Z,10.97
2023-11-15T03:02:27.128Z,10.97
2023-11-15T03:04:54.334Z,10.96
2023-11-15T03:07:21.492Z,10.96
2023-11-15T03:09:48.599Z,10.94
2023-11-15T03:12:15.726Z,10.91
2023-11-15T03:14:43.056Z,10.91
2023-11-15T03:17:17.119Z,10.90
2023-11-15T03:19:45.498Z,10.90
2023-11-15T03:22:16.136Z,10.90
2023-11-15T03:24:46.819Z,10.90
2023-11-15T03:27:14.134Z,10.91
2023-11-15T03:29:41.258Z,10.93
2023-11-15T03:32:08.890Z,10.92
2023-11-15T03:34:37.014Z,10.93
2023-11-15T03:37:06.022Z,10.93
2023-11-15T03:39:34.063Z,10.93
2023-11-15T03:42:01.615Z,10.93
2023-11-15T03:44:28.882Z,10.95
2023-11-15T03:46:56.001Z,10.96
2023-11-15T03:49:23.379Z,10.93
2023-11-15T03:51:51.038Z,10.94
2023-11-15T03:54:18.270Z,10.93
2023-11-15T03:56:46.339Z,10.95
2023-11-15T03:59:13.434Z,10.96
2023-11-15T04:01:52.125Z,10.98
2023-11-15T04:04:25.071Z,10.98
2023-11-15T04:06:52.848Z,10.98
2023-11-15T04:09:20.150Z,10.96
2023-11-15T04:11:47.589Z,10.95
2023-11-15T04:14:15.266Z,10.93
2023-11-15T04:16:50.175Z,10.93
2023-11-15T04:19:18.723Z,10.93
2023-11-15T04:21:46.276Z,10.93
2023-11-15T04:24:14.269Z,10.92
2023-11-15T04:26:42.005Z,10.89
2023-11-15T04:29:09.850Z,10.86
2023-11-15T04:31:37.971Z,10.88
2023-11-15T04:34:06.440Z,10.87
2023-11-15T04:36:34.613Z,10.85
2023-11-15T04:39:09.591Z,10.82
2023-11-15T04:41:38.627Z,10.79
2023-11-15T04:44:06.064Z,10.80
2023-11-15T04:46:35.781Z,10.82
2023-11-15T04:49:08.386Z,10.78
2023-11-15T04:51:35.901Z,10.78
2023-11-15T04:54:03.149Z,10.80
2023-11-15T04:56:30.422Z,10.79
2023-11-15T04:58:57.872Z,10.81
2023-11-15T05:01:25.837Z,10.84
2023-11-15T05:03:53.255Z,10.85
2023-11-15T05:06:23.091Z,10.80
2023-11-15T05:08:50.469Z,10.83
2023-11-15T05:11:17.683Z,10.86
2023-11-15T05:13:46.400Z,10.88
2023-11-15T05:16:15.756Z,10.88
2023-11-15T05:18:42.840Z,10.91
2023-11-15T05:21:10.272Z,10.92
2023-11-15T05:23:37.752Z,10.93
2023-11-15T05:26:05.074Z,10.93
2023-11-15T05:28:32.165Z,10.88
2023-11-15T05:30:59.559Z,10.89
2023-11-15T05:33:26.686Z,10.88
2023-11-15T05:35:57.948Z,10.87
2023-11-15T05:38:29.250Z,10.89
2023-11-15T05:40:56.553Z,10.87
2023-11-15T05:43:23.612Z,10.82
2023-11-15T05:45:50.682Z,10.83
2023-11-15T05:48:17.836Z,10.82
2023-11-15T05:50:45.035Z,10.81
2023-11-15T05:53:12.312Z,10.81
2023-11-15T05:55:41.468Z,10.79
2023-11-15T05:58:09.026Z,10.78
2023-11-15T06:00:36.268Z,10.79
2023-11-15T06:03:05.106Z,10.81
2023-11-15T06:05:32.602Z,10.82
2023-11-15T06:08:02.852Z,10.78
2023-11-15T06:10:35.604Z,10.78
2023-11-15T06:13:02.708Z,10.80
2023-11-15T06:15:29.795Z,10.84
2023-11-15T06:17:57.028Z,10.85
2023-11-15T06:20:24.204Z,10.86
2023-11-15T06:22:52.091Z,10.82
2023-11-15T06:25:22.940Z,10.80
2023-11-15T06:27:50.140Z,10.75
2023-11-15T06:30:18.397Z,10.75
2023-11-15T06:32:46.231Z,10.69
2023-11-15T06:35:20.351Z,10.65
2023-11-15T06:37:48.550Z,10.64
2023-11-15T06:40:19.867Z,10.60
2023-11-15T06:42:47.364Z,10.62
2023-11-15T06:45:14.587Z,10.61
2023-11-15T06:47:44.775Z,10.61
2023-11-15T06:50:12.168Z,10.59
2023-11-15T06:52:39.577Z,10.57
2023-11-15T06:55:12.619Z,10.51
2023-11-15T06:57:42.894Z,10.47
2023-11-15T07:00:14.578Z,10.40
2023-11-15T07:02:44.725Z,10.43
2023-11-15T07:05:12.326Z,10.45
2023-11-15T07:07:39.792Z,10.47
2023-11-15T07:10:08.029Z,10.46
2023-11-15T07:12:38.135Z,10.42
2023-11-15T07:15:05.905Z,10.45
2023-11-15T07:17:33.611Z,10.46
2023-11-15T07:20:00.906Z,10.49
2023-11-15T07:22:28.047Z,10.52
2023-11-15T07:24:55.506Z,10.55
2023-11-15T07:27:25.658Z,10.57
2023-11-15T07:29:54.036Z,10.57
2023-11-15T07:32:21.820Z,10.56
2023-11-15T07:34:48.939Z,10.56
2023-11-15T07:37:16.170Z,10.56
2023-11-15T07:39:43.274Z,10.57
2023-11-15T07:42:10.405Z,10.59
2023-11-15T07:44:37.616Z,10.58
2023-11-15T07:47:05.021Z,10.60
2023-11-15T07:49:32.141Z,10.59
2023-11-15T07:52:00.345Z,10.60
2023-11-15T07:54:27.640Z,10.59
2023-11-15T07:56:54.749Z,10.61
2023-11-15T07:59:23.242Z,10.64
2023-11-15T08:01:50.444Z,10.64
2023-11-15T08:04:17.827Z,10.65
2023-11-15T08:06:45.186Z,10.64
2023-11-15T08:09:26.384Z,10.64
2023-11-15T08:11:58.053Z,10.67
2023-11-15T08:14:27.043Z,10.72
2023-11-15T08:16:54.744Z,10.78
2023-11-15T08:19:21.924Z,10.87
2023-11-15T08:21:49.862Z,10.99
2023-11-15T08:24:23.536Z,11.05
2023-11-15T08:26:54.443Z,11.06
2023-11-15T08:29:22.627Z,11.07
2023-11-15T08:31:50.622Z,11.07
2023-11-15T08:34:22.447Z,11.04
2023-11-15T08:36:51.068Z,11.01
2023-11-15T08:39:18.447Z,11.22
2023-11-15T08:41:48.349Z,11.75
2023-11-15T08:44:19.479Z,12.39
2023-11-15T08:46:47.112Z,13.03
2023-11-15T08:49:17.782Z,13.50
2023-11-15T08:51:48.779Z,13.87
2023-11-15T08:54:17.578Z,14.60
2023-11-15T08:56:47.007Z,15.37
2023-11-15T08:59:17.422Z,15.54
2023-11-15T09:01:46.546Z,15.16
2023-11-15T09:04:14.604Z,14.60
2023-11-15T09:06:49.290Z,14.01
2023-11-15T09:09:17.677Z,13.50
2023-11-15T09:11:46.156Z,13.16
2023-11-15T09:14:16.066Z,12.89
2023-11-15T09:16:43.787Z,12.77
2023-11-15T09:19:17.722Z,12.65
2023-11-15T09:21:49.893Z,12.54
2023-11-15T09:24:23.852Z,12.45
2023-11-15T09:26:51.645Z,12.42
2023-11-15T09:29:18.889Z,12.45
2023-11-15T09:31:46.285Z,12.38
2023-11-15T09:34:13.617Z,12.30
2023-11-15T09:36:40.818Z,12.30
2023-11-15T09:39:11.080Z,12.29
2023-11-15T09:41:38.685Z,12.29
2023-11-15T09:44:11.065Z,12.28
2023-11-15T09:46:39.132Z,12.24
2023-11-15T09:49:08.544Z,12.21
2023-11-15T09:51:39.211Z,12.16
2023-11-15T09:54:13.258Z,12.13
2023-11-15T09:56:46.750Z,12.17
2023-11-15T09:59:14.736Z,12.17
2023-11-15T10:01:47.291Z,12.14
2023-11-15T10:04:27.536Z,12.11
2023-11-15T10:07:05.464Z,12.14
2023-11-15T10:09:37.052Z,12.11
2023-11-15T10:12:05.544Z,12.10
2023-11-15T10:14:34.247Z,12.13
2023-11-15T10:17:04.815Z,12.15
2023-11-15T10:19:33.181Z,12.13
2023-11-15T10:22:02.364Z,12.09
2023-11-15T10:24:30.368Z,12.06
2023-11-15T10:26:59.486Z,12.10
2023-11-15T10:29:27.825Z,12.10
2023-11-15T10:31:58.667Z,12.10
2023-11-15T10:34:34.172Z,12.11
2023-11-15T10:37:12.270Z,12.11
2023-11-15T10:39:45.906Z,12.11
2023-11-15T10:42:14.274Z,12.14
2023-11-15T10:44:43.758Z,12.16
2023-11-15T10:47:13.953Z,12.14
2023-11-15T10:49:45.968Z,12.16
2023-11-15T10:52:15.306Z,12.17
2023-11-15T10:54:44.409Z,12.21
2023-11-15T10:57:12.992Z,12.26
2023-11-15T10:59:41.722Z,12.30
2023-11-15T11:02:11.354Z,12.32
2023-11-15T11:04:40.472Z,12.28
2023-11-15T11:07:15.622Z,12.31
2023-11-15T11:10:11.244Z,12.31
2023-11-15T11:12:38.498Z,12.34
2023-11-15T11:15:26.087Z,12.36
2023-11-15T11:18:13.765Z,12.43
2023-11-15T11:20:42.683Z,12.47
2023-11-15T11:23:23.711Z,12.45
2023-11-15T11:25:53.352Z,12.43
2023-11-15T11:28:22.377Z,12.43
2023-11-15T11:31:20.535Z,12.42
2023-11-15T11:34:09.581Z,12.40
2023-11-15T11:36:55.241Z,12.38
2023-11-15T11:39:44.072Z,12.40
2023-11-15T11:42:27.835Z,12.36
2023-11-15T11:44:59.070Z,12.38
2023-11-15T11:47:26.427Z,12.36
2023-11-15T11:49:53.981Z,12.32
2023-11-15T11:52:21.302Z,12.25
2023-11-15T11:54:54.639Z,12.18
2023-11-15T11:57:23.146Z,12.20
2023-11-15T12:00:12.779Z,12.22
2023-11-15T12:02:45.601Z,12.28
2023-11-15T12:05:14.152Z,12.26
2023-11-15T12:07:46.284Z,12.25
2023-11-15T12:10:17.266Z,12.28
2023-11-15T12:13:04.096Z,12.24
2023-11-15T12:15:31.566Z,12.10
2023-11-15T12:18:01.078Z,12.04
2023-11-15T12:20:35.191Z,11.96
2023-11-15T12:23:09.572Z,11.80
2023-11-15T12:25:53.955Z,11.75
2023-11-15T12:28:32.312Z,11.73
2023-11-15T12:31:05.209Z,11.70
2023-11-15T12:33:35.499Z,11.70
2023-11-15T12:36:05.176Z,11.71
2023-11-15T12:38:33.560Z,11.71
2023-11-15T12:41:07.173Z,11.69
2023-11-15T12:43:35.244Z,11.66
2023-11-15T12:46:15.871Z,11.64
2023-11-15T12:48:43.647Z,11.64
2023-11-15T12:51:10.863Z,11.65
2023-11-15T12:53:37.989Z,11.68
2023-11-15T12:56:05.521Z,11.70
2023-11-15T12:58:32.561Z,11.70
2023-11-15T13:00:59.698Z,11.72
2023-11-15T13:03:32.232Z,11.75
2023-11-15T13:06:09.420Z,11.73
2023-11-15T13:08:38.953Z,11.81
2023-11-15T13:11:07.434Z,11.83
2023-11-15T13:13:34.836Z,11.84
2023-11-15T13:16:02.060Z,11.87
2023-11-15T13:18:29.392Z,11.88
2023-11-15T13:20:59.354Z,11.86
2023-11-15T13:23:27.039Z,11.87
2023-11-15T13:25:57.644Z,11.86
2023-11-15T13:28:25.702Z,11.82
2023-11-15T13:30:52.802Z,11.78
2023-11-15T13:33:20.249Z,11.73
2023-11-15T13:35:47.729Z,11.63
2023-11-15T13:38:14.909Z,11.59
2023-11-15T13:40:42.972Z,11.58
2023-11-15T13:43:10.097Z,11.57
2023-11-15T13:45:37.205Z,11.54
2023-11-15T13:48:04.756Z,11.53
2023-11-15T13:50:31.902Z,11.51
2023-11-15T13:52:59.142Z,11.54
2023-11-15T13:55:26.261Z,11.55
2023-11-15T13:57:53.383Z,11.54
2023-11-15T14:00:25.184Z,11.56
2023-11-15T14:02:53.121Z,11.58
2023-11-15T14:05:22.079Z,11.61
2023-11-15T14:07:49.146Z,11.63
2023-11-15T14:10:20.794Z,11.65
2023-11-15T14:12:47.994Z,11.67
2023-11-15T14:15:19.907Z,11.67
2023-11-15T14:17:49.927Z,11.72
2023-11-15T14:20:19.573Z,11.71
2023-11-15T14:22:46.726Z,11.70
2023-11-15T14:25:22.770Z,11.68
2023-11-15T14:27:54.367Z,11.67
2023-11-15T14:30:24.979Z,11.68
2023-11-15T14:32:52.707Z,11.68
2023-11-15T14:35:20.536Z,11.68
2023-11-15T14:37:50.132Z,11.64
2023-11-15T14:40:22.244Z,11.57
2023-11-15T14:42:52.177Z,11.54
2023-11-15T14:45:20.521Z,11.48
2023-11-15T14:47:48.471Z,11.46
2023-11-15T14:50:17.783Z,11.41
2023-11-15T14:53:08.257Z,11.38
2023-11-15T14:55:37.201Z,11.40
2023-11-15T14:58:04.821Z,11.32
2023-11-15T15:00:31.918Z,11.29
2023-11-15T15:02:59.129Z,11.24
2023-11-15T15:05:26.344Z,11.23
2023-11-15T15:07:53.449Z,11.20
2023-11-15T15:10:21.464Z,11.16
2023-11-15T15:12:49.478Z,11.13
2023-11-15T15:15:19.655Z,11.08
2023-11-15T15:17:48.365Z,11.05
2023-11-15T15:20:19.958Z,11.04
2023-11-15T15:22:48.182Z,11.01
2023-11-15T15:25:16.168Z,10.98
2023-11-15T15:27:43.525Z,10.96
2023-11-15T15:30:15.001Z,10.97
2023-11-15T15:32:42.571Z,10.94
2023-11-15T15:35:13.640Z,10.93
2023-11-15T15:37:41.618Z,10.89
2023-11-15T15:40:18.014Z,10.87
2023-11-15T15:42:46.035Z,10.86
2023-11-15T15:45:16.113Z,10.83
2023-11-15T15:47:47.120Z,10.81
2023-11-15T15:50:15.368Z,10.80
2023-11-15T15:52:43.564Z,10.80
2023-11-15T15:55:11.809Z,10.80
2023-11-15T15:57:39.468Z,10.75
2023-11-15T16:00:08.343Z,10.69
2023-11-15T16:02:36.403Z,10.65
2023-11-15T16:05:08.060Z,10.62
2023-11-15T16:07:35.528Z,10.57
2023-11-15T16:10:03.112Z,10.55
2023-11-15T16:12:32.827Z,10.58
2023-11-15T16:15:00.269Z,10.59
2023-11-15T16:17:28.593Z,10.62
2023-11-15T16:19:58.246Z,10.63
2023-11-15T16:22:26.485Z,10.65
2023-11-15T16:24:55.914Z,10.61
2023-11-15T16:27:28.515Z,10.59
2023-11-15T16:30:02.182Z,10.56
2023-11-15T16:32:30.069Z,10.53
2023-11-15T16:34:57.919Z,10.49
2023-11-15T16:37:26.199Z,10.44
2023-11-15T16:39:53.953Z,10.43
2023-11-15T16:42:21.920Z,10.39
2023-11-15T16:44:49.334Z,10.39
2023-11-15T16:47:16.510Z,10.40
2023-11-15T16:49:43.874Z,10.36
2023-11-15T16:52:11.641Z,10.34
2023-11-15T16:54:38.903Z,10.31
2023-11-15T16:57:06.666Z,10.29
2023-11-15T16:59:34.422Z,10.30
2023-11-15T17:02:02.000Z,10.29
2023-11-15T17:04:29.242Z,10.23
2023-11-15T17:06:57.567Z,10.22
2023-11-15T17:09:24.808Z,10.23
2023-11-15T17:11:52.123Z,10.21
2023-11-15T17:14:22.232Z,10.18
2023-11-15T17:16:50.352Z,10.15
2023-11-15T17:19:20.744Z,10.15
2023-11-15T17:21:48.537Z,10.16
2023-11-15T17:24:20.308Z,10.15
2023-11-15T17:26:48.051Z,10.10
2023-11-15T17:29:15.463Z,10.12
2023-11-15T17:31:43.018Z,10.12
2023-11-15T17:34:12.565Z,10.09
2023-11-15T17:36:42.096Z,10.11
2023-11-15T17:39:12.855Z,10.13
2023-11-15T17:41:40.158Z,10.10
2023-11-15T17:44:12.994Z,10.06
2023-11-15T17:46:44.258Z,10.08
2023-11-15T17:49:12.358Z,10.02
2023-11-15T17:51:40.054Z,10.02
2023-11-15T17:54:10.168Z,10.01
2023-11-15T17:56:37.343Z,10.04
2023-11-15T17:59:05.916Z,10.07
2023-11-15T18:01:34.283Z,10.05
2023-11-15T18:04:02.055Z,10.02
2023-11-15T18:06:29.218Z,10.00
2023-11-15T18:08:56.621Z,10.00
2023-11-15T18:11:23.859Z,9.97
2023-11-15T18:13:51.168Z,9.94
2023-11-15T18:16:18.340Z,9.93
2023-11-15T18:18:45.569Z,9.89
2023-11-15T18:21:12.841Z,9.89
2023-11-15T18:23:40.031Z,9.91
2023-11-15T18:26:07.185Z,9.90
2023-11-15T18:28:35.068Z,9.90
2023-11-15T18:31:07.739Z,9.87
2023-11-15T18:33:40.018Z,9.91
2023-11-15T18:36:10.718Z,9.91
2023-11-15T18:38:37.985Z,9.91
2023-11-15T18:41:06.045Z,9.92
2023-11-15T18:43:33.127Z,9.92
2023-11-15T18:46:00.265Z,9.90
2023-11-15T18:48:27.791Z,9.92
2023-11-15T18:50:54.949Z,9.91
2023-11-15T18:53:22.037Z,9.93
2023-11-15T18:55:49.366Z,9.92
2023-11-15T18:58:16.511Z,9.94
2023-11-15T19:00:43.606Z,9.98
2023-11-15T19:03:12.829Z,10.01
2023-11-15T19:05:40.775Z,10.07
2023-11-15T19:08:07.840Z,10.08
2023-11-15T19:10:34.990Z,10.07
2023-11-15T19:13:02.144Z,10.08
2023-11-15T19:15:31.221Z,10.03
2023-11-15T19:17:58.456Z,9.97
2023-11-15T19:20:27.365Z,9.94
2023-11-15T19:22:55.146Z,9.95
2023-11-15T19:25:23.490Z,9.96
2023-11-15T19:27:51.070Z,9.97
2023-11-15T19:30:21.037Z,9.97
2023-11-15T19:32:48.568Z,9.95
2023-11-15T19:35:18.281Z,9.95
2023-11-15T19:37:45.471Z,9.96
2023-11-15T19:40:13.152Z,9.95
2023-11-15T19:42:40.220Z,10.01
2023-11-15T19:45:09.009Z,10.01
2023-11-15T19:47:36.439Z,10.00
2023-11-15T19:50:04.087Z,9.96
2023-11-15T19:52:31.386Z,9.92
2023-11-15T19:54:59.065Z,9.95
2023-11-15T19:57:28.162Z,9.99
2023-11-15T19:59:56.480Z,9.98
2023-11-15T20:02:29.287Z,9.96
2023-11-15T20:04:59.368Z,9.95
2023-11-15T20:07:28.141Z,9.89
2023-11-15T20:09:55.230Z,9.90
2023-11-15T20:12:24.877Z,9.89
2023-11-15T20:14:52.030Z,9.82
2023-11-15T20:17:19.173Z,9.77
2023-11-15T20:19:46.306Z,9.76
2023-11-15T20:22:13.418Z,9.74
2023-11-15T20:24:40.580Z,9.74
2023-11-15T20:27:09.097Z,9.77
2023-11-15T20:29:37.148Z,9.76
2023-11-15T20:32:04.506Z,9.75
2023-11-15T20:34:31.691Z,9.77
2023-11-15T20:36:58.962Z,9.79
2023-11-15T20:39:28.407Z,9.78
2023-11-15T20:41:57.313Z,9.76
2023-11-15T20:44:24.543Z,9.78
2023-11-15T20:46:51.917Z,9.79
2023-11-15T20:49:19.298Z,9.82
2023-11-15T20:51:48.959Z,9.86
2023-11-15T20:54:17.703Z,9.85
2023-11-15T20:56:46.152Z,9.83
2023-11-15T20:59:14.049Z,9.78
2023-11-15T21:01:41.220Z,9.71
2023-11-15T21:04:12.648Z,9.71
2023-11-15T21:06:39.808Z,9.69
2023-11-15T21:09:10.952Z,9.70
2023-11-15T21:11:42.057Z,9.68
2023-11-15T21:14:09.549Z,9.69
2023-11-15T21:16:38.139Z,9.68
2023-11-15T21:19:05.556Z,9.69
2023-11-15T21:21:34.319Z,9.74
2023-11-15T21:24:02.597Z,9.79
2023-11-15T21:26:29.742Z,9.81
2023-11-15T21:29:00.160Z,9.82
2023-11-15T21:31:27.957Z,9.81
2023-11-15T21:33:55.101Z,9.79
2023-11-15T21:36:22.430Z,9.78
2023-11-15T21:38:49.478Z,9.75
2023-11-15T21:41:17.757Z,9.78
2023-11-15T21:43:45.006Z,9.79
2023-11-15T21:46:12.110Z,9.70
2023-11-15T21:48:39.259Z,9.67
2023-11-15T21:51:06.678Z,9.69
2023-11-15T21:53:34.528Z,9.73
2023-11-15T21:56:03.072Z,9.73
2023-11-15T21:58:30.825Z,9.72
2023-11-15T22:00:57.991Z,9.69
2023-11-15T22:03:25.341Z,9.67
2023-11-15T22:05:52.705Z,9.68
2023-11-15T22:08:19.757Z,9.68
2023-11-15T22:10:47.254Z,9.68
2023-11-15T22:13:14.431Z,9.71
2023-11-15T22:15:41.590Z,9.73
2023-11-15T22:18:08.940Z,9.73
2023-11-15T22:20:36.767Z,9.77
2023-11-15T22:23:05.249Z,9.78
2023-11-15T22:25:32.541Z,9.80
2023-11-15T22:27:59.659Z,9.82
2023-11-15T22:30:26.843Z,9.81
2023-11-15T22:32:53.980Z,9.81
2023-11-15T22:35:22.196Z,9.81
2023-11-15T22:37:49.435Z,9.82
2023-11-15T22:40:16.520Z,9.79
2023-11-15T22:42:48.733Z,9.75
2023-11-15T22:45:18.429Z,9.76
2023-11-15T22:47:45.607Z,9.77
2023-11-15T22:50:12.691Z,9.80
2023-11-15T22:52:39.742Z,9.81
2023-11-15T22:55:08.742Z,9.83
2023-11-15T22:57:35.841Z,9.80
2023-11-15T23:00:03.896Z,9.80
2023-11-15T23:02:32.426Z,9.78
2023-11-15T23:04:59.726Z,9.74
2023-11-15T23:07:27.035Z,9.73
2023-11-15T23:09:54.121Z,9.73
2023-11-15T23:12:24.415Z,9.71
2023-11-15T23:14:51.851Z,9.67
2023-11-15T23:17:19.716Z,9.66
2023-11-15T23:19:50.648Z,9.66
2023-11-15T23:22:17.737Z,9.69
2023-11-15T23:24:44.840Z,9.70
2023-11-15T23:27:11.938Z,9.73
2023-11-15T23:29:39.036Z,9.72
2023-11-15T23:32:06.736Z,9.66
2023-11-15T23:34:33.811Z,9.63
2023-11-15T23:37:00.913Z,9.63
2023-11-15T23:39:28.097Z,9.64
2023-11-15T23:41:55.295Z,9.67
2023-11-15T23:44:22.455Z,9.67
2023-11-15T23:46:52.463Z,9.69
2023-11-15T23:49:20.124Z,9.68
2023-11-15T23:51:47.178Z,9.64
2023-11-15T23:54:14.305Z,9.61
2023-11-15T23:56:43.037Z,9.60
2023-11-15T23:59:10.283Z,9.61
